Time;durP1;ratioP1;P1;durP2;ratioP2;P2;SDS_P1;SDS_P2;PMS_P1;PMS_P2;Temp;Humidity;BMP_temperature;BMP_pressure;BME280_temperature;BME280_humidity;BME280_pressure;Samples;Min_cycle;Max_cycle;Signal;HPM_P1;HPM_P2
2021/12/23 00:02:14;;;;;;;17.60;11.10;;;9.60;99.90;;;;;;5010268;28;20175;-76
2021/12/23 00:04:40;;;;;;;17.95;11.00;;;9.70;99.90;;;;;;5011417;28;20026;-76
2021/12/23 00:07:06;;;;;;;17.25;11.18;;;9.70;99.90;;;;;;5012628;28;20029;-76
2021/12/23 00:12:17;;;;;;;16.08;11.80;;;9.70;99.90;;;;;;5016185;28;20036;-76
2021/12/23 00:14:45;;;;;;;15.95;11.18;;;9.80;99.80;;;;;;5014513;28;20080;-76
2021/12/23 00:17:26;;;;;;;17.15;11.43;;;9.80;99.60;;;;;;5010755;28;20071;-76
2021/12/23 00:25:18;;;;;;;18.33;11.98;;;9.80;99.40;;;;;;4995398;28;23211;-76
2021/12/23 00:27:44;;;;;;;19.38;11.82;;;9.80;99.70;;;;;;5000876;28;20065;-76
2021/12/23 00:30:10;;;;;;;17.15;11.20;;;9.70;99.50;;;;;;4995339;28;20022;-76
2021/12/23 00:32:36;;;;;;;17.23;11.38;;;9.70;99.50;;;;;;4997688;28;20018;-76
2021/12/23 00:35:06;;;;;;;18.50;11.07;;;9.70;99.50;;;;;;4999342;28;20561;-75
2021/12/23 00:37:38;;;;;;;16.83;11.75;;;9.70;99.40;;;;;;4995982;28;20026;-76
2021/12/23 00:40:05;;;;;;;14.95;10.95;;;9.70;99.10;;;;;;4997033;28;20037;-76
2021/12/23 00:42:32;;;;;;;17.13;10.98;;;9.70;99.60;;;;;;4996161;28;20491;-77
2021/12/23 00:44:58;;;;;;;16.13;10.43;;;9.70;99.20;;;;;;4995095;28;20026;-76
2021/12/23 00:47:24;;;;;;;16.05;10.18;;;9.70;99.20;;;;;;4999354;28;20045;-77
2021/12/23 00:49:50;;;;;;;15.38;10.75;;;9.70;99.20;;;;;;4997870;28;20564;-76
2021/12/23 00:52:22;;;;;;;14.93;10.10;;;9.70;99.40;;;;;;4996537;28;20026;-77
2021/12/23 00:54:48;;;;;;;14.05;10.43;;;9.60;99.60;;;;;;4993823;28;20041;-76
2021/12/23 00:57:13;;;;;;;14.32;10.30;;;9.70;99.70;;;;;;4995478;28;20040;-76
2021/12/23 00:59:39;;;;;;;16.67;10.95;;;9.70;99.70;;;;;;4998633;28;20049;-75
2021/12/23 01:02:08;;;;;;;14.07;9.95;;;9.70;99.80;;;;;;5002297;28;20036;-76
2021/12/23 01:04:34;;;;;;;14.18;9.85;;;9.70;99.80;;;;;;5003518;28;20562;-76
2021/12/23 01:07:00;;;;;;;13.77;9.70;;;9.70;99.90;;;;;;5003005;28;20491;-76
2021/12/23 01:09:26;;;;;;;14.95;10.05;;;9.70;99.90;;;;;;5002975;28;20105;-76
2021/12/23 01:11:53;;;;;;;15.02;10.48;;;9.70;99.90;;;;;;5004086;28;20109;-76
2021/12/23 01:17:00;;;;;;;14.43;10.02;;;9.70;99.80;;;;;;5005374;28;20509;-76
2021/12/23 01:19:26;;;;;;;15.70;9.95;;;9.70;99.90;;;;;;5010544;28;20045;-76
2021/12/23 01:21:52;;;;;;;17.27;10.52;;;9.70;99.90;;;;;;5003309;28;20400;-76
2021/12/23 01:24:18;;;;;;;12.20;9.25;;;9.70;99.80;;;;;;5010885;28;20037;-76
2021/12/23 01:26:44;;;;;;;14.02;10.25;;;9.70;99.70;;;;;;5011182;28;20025;-76
2021/12/23 01:29:10;;;;;;;14.18;10.00;;;9.70;99.80;;;;;;5010044;28;20030;-76
2021/12/23 01:31:38;;;;;;;13.82;9.75;;;9.70;99.90;;;;;;5010817;28;20026;-76
2021/12/23 01:34:04;;;;;;;16.17;10.75;;;9.70;99.80;;;;;;5012782;28;20026;-76
2021/12/23 01:36:30;;;;;;;14.73;9.82;;;9.70;99.70;;;;;;5013500;28;20032;-76
2021/12/23 01:38:56;;;;;;;16.05;11.27;;;9.70;99.80;;;;;;5015113;28;20037;-76
2021/12/23 01:41:23;;;;;;;15.48;11.02;;;9.70;99.80;;;;;;5014972;28;20022;-76
2021/12/23 01:43:51;;;;;;;15.25;10.95;;;9.70;99.90;;;;;;5015115;28;20513;-76
2021/12/23 01:46:17;;;;;;;15.50;11.52;;;9.60;99.90;;;;;;5014677;28;20127;-75
2021/12/23 01:48:42;;;;;;;17.98;11.65;;;9.60;99.90;;;;;;5011518;28;20084;-75
2021/12/23 01:51:08;;;;;;;15.57;11.07;;;9.60;99.90;;;;;;5014783;28;20779;-76
2021/12/23 01:53:34;;;;;;;18.13;11.40;;;9.60;99.90;;;;;;5012886;28;20041;-76
2021/12/23 01:56:00;;;;;;;17.27;11.70;;;9.60;99.90;;;;;;5013253;28;20064;-76
2021/12/23 01:58:26;;;;;;;17.08;11.25;;;9.60;99.90;;;;;;5013213;28;20148;-77
2021/12/23 02:00:52;;;;;;;16.65;11.52;;;9.70;99.80;;;;;;5011378;28;20482;-76
2021/12/23 02:03:19;;;;;;;16.38;11.35;;;9.70;99.80;;;;;;5004812;28;20027;-76
2021/12/23 02:05:45;;;;;;;16.38;11.60;;;9.70;99.60;;;;;;5008420;28;20466;-75
2021/12/23 02:08:12;;;;;;;18.70;12.63;;;9.70;99.80;;;;;;5009583;28;20050;-76
2021/12/23 02:10:40;;;;;;;15.63;11.52;;;9.70;99.70;;;;;;5006031;28;20022;-76
2021/12/23 02:13:06;;;;;;;15.88;11.73;;;9.70;99.70;;;;;;5005205;28;20113;-76
2021/12/23 02:15:32;;;;;;;15.95;11.18;;;9.70;99.60;;;;;;5004119;28;20038;-76
2021/12/23 02:17:58;;;;;;;17.02;11.48;;;9.70;99.70;;;;;;5009254;28;20081;-76
2021/12/23 02:20:33;;;;;;;16.67;11.48;;;9.70;99.60;;;;;;5013462;28;20025;-76
2021/12/23 02:22:59;;;;;;;17.45;11.57;;;9.70;99.60;;;;;;5012465;28;20017;-76
2021/12/23 02:25:25;;;;;;;17.45;11.60;;;9.70;99.60;;;;;;5008526;28;20030;-76
2021/12/23 02:27:53;;;;;;;15.73;11.25;;;9.70;99.50;;;;;;5007392;28;20443;-76
2021/12/23 02:30:22;;;;;;;19.25;11.70;;;9.70;99.40;;;;;;5008129;28;20054;-76
2021/12/23 02:32:50;;;;;;;18.38;12.38;;;9.70;99.50;;;;;;5012398;28;20030;-76
2021/12/23 02:35:17;;;;;;;17.35;11.73;;;9.60;99.70;;;;;;5013955;28;20025;-76
2021/12/23 02:37:44;;;;;;;17.35;11.55;;;9.60;99.60;;;;;;5009981;28;20069;-76
2021/12/23 02:40:27;;;;;;;17.55;11.90;;;9.60;99.70;;;;;;5007760;28;20042;-76
2021/12/23 02:42:53;;;;;;;18.45;11.43;;;9.60;99.80;;;;;;5006444;28;20120;-76
2021/12/23 02:45:19;;;;;;;15.98;11.38;;;9.60;99.90;;;;;;5008458;28;20114;-76
2021/12/23 02:47:45;;;;;;;16.33;11.55;;;9.60;99.90;;;;;;5011553;28;20129;-76
2021/12/23 02:50:11;;;;;;;16.30;12.05;;;9.60;99.90;;;;;;5012337;28;20022;-76
2021/12/23 02:52:37;;;;;;;16.00;11.13;;;9.60;99.90;;;;;;5008210;28;20054;-76
2021/12/23 02:55:03;;;;;;;18.45;11.38;;;9.50;99.90;;;;;;5006586;28;20399;-76
2021/12/23 02:57:33;;;;;;;16.20;10.43;;;9.60;99.90;;;;;;5006737;28;20034;-76
2021/12/23 03:00:00;;;;;;;16.08;10.85;;;9.60;99.90;;;;;;5009540;28;20097;-76
2021/12/23 03:02:25;;;;;;;15.55;10.60;;;9.60;99.90;;;;;;5012446;28;20026;-76
2021/12/23 03:04:51;;;;;;;14.98;9.85;;;9.60;99.90;;;;;;5009584;28;20434;-76
2021/12/23 03:07:17;;;;;;;22.45;15.20;;;9.60;99.90;;;;;;5008413;28;20061;-76
2021/12/23 03:09:46;;;;;;;21.92;16.88;;;9.60;99.90;;;;;;5005178;28;20033;-76
2021/12/23 03:12:12;;;;;;;26.02;17.45;;;9.50;99.90;;;;;;5009157;28;20105;-76
2021/12/23 03:14:38;;;;;;;22.10;17.25;;;9.40;99.90;;;;;;5012895;28;20530;-76
2021/12/23 03:17:04;;;;;;;27.08;17.23;;;9.30;99.90;;;;;;5010934;28;20030;-76
2021/12/23 03:19:31;;;;;;;23.92;17.15;;;9.20;99.90;;;;;;5016868;28;20037;-76
2021/12/23 03:21:57;;;;;;;26.30;17.08;;;9.20;99.90;;;;;;5013439;28;20548;-76
2021/12/23 03:24:22;;;;;;;25.67;16.88;;;9.20;99.90;;;;;;5014208;28;20105;-75
2021/12/23 03:26:49;;;;;;;25.52;16.63;;;9.10;99.90;;;;;;5015982;28;20045;-76
2021/12/23 03:29:14;;;;;;;24.08;15.75;;;9.10;99.90;;;;;;5016545;28;20398;-76
2021/12/23 03:31:40;;;;;;;24.70;16.67;;;9.10;99.90;;;;;;5011142;28;20037;-76
2021/12/23 03:34:06;;;;;;;21.27;15.15;;;9.10;99.90;;;;;;5012865;28;20018;-76
2021/12/23 03:36:32;;;;;;;19.80;14.32;;;9.20;99.90;;;;;;5014891;28;20080;-76
2021/12/23 03:38:58;;;;;;;21.00;13.27;;;9.20;99.90;;;;;;5016332;28;20042;-76
2021/12/23 03:41:24;;;;;;;16.85;11.52;;;9.20;99.90;;;;;;5012027;28;20076;-76
2021/12/23 03:43:50;;;;;;;15.30;10.18;;;9.20;99.90;;;;;;5012713;28;20069;-76
2021/12/23 03:46:16;;;;;;;14.82;9.32;;;9.30;99.90;;;;;;4966061;28;1420542;-76
2021/12/23 03:48:41;;;;;;;13.23;9.57;;;9.30;99.90;;;;;;5010373;28;20509;-76
2021/12/23 03:51:07;;;;;;;14.80;9.85;;;9.30;99.90;;;;;;5013678;28;20025;-76
2021/12/23 03:53:33;;;;;;;14.43;8.93;;;9.40;99.90;;;;;;5012820;28;20045;-76
2021/12/23 03:55:59;;;;;;;14.77;9.20;;;9.40;99.90;;;;;;5013927;28;20102;-76
2021/12/23 03:58:25;;;;;;;13.73;8.45;;;9.50;99.90;;;;;;5008938;28;20044;-76
2021/12/23 04:00:51;;;;;;;16.58;9.52;;;9.50;99.90;;;;;;5001749;28;20022;-76
2021/12/23 04:03:17;;;;;;;15.15;9.02;;;9.40;99.90;;;;;;5005468;28;20042;-76
2021/12/23 04:05:43;;;;;;;11.63;8.77;;;9.50;99.80;;;;;;5009946;28;20014;-76
2021/12/23 04:08:09;;;;;;;11.32;8.50;;;9.50;99.60;;;;;;5007493;28;20105;-76
2021/12/23 04:10:35;;;;;;;13.73;9.77;;;9.60;99.50;;;;;;5007789;28;20021;-76
2021/12/23 04:13:01;;;;;;;13.30;9.57;;;9.60;99.60;;;;;;5003468;28;20113;-76
2021/12/23 04:15:27;;;;;;;13.10;8.50;;;9.60;99.50;;;;;;5003798;28;20109;-76
2021/12/23 04:17:52;;;;;;;13.75;9.10;;;9.50;99.60;;;;;;5009579;28;20380;-76
2021/12/23 04:20:21;;;;;;;14.88;9.05;;;9.50;99.60;;;;;;5008640;28;20080;-76
2021/12/23 04:22:52;;;;;;;11.63;8.70;;;9.60;99.50;;;;;;5009181;28;20427;-76
2021/12/23 04:25:20;;;;;;;12.73;8.23;;;9.60;99.70;;;;;;5008437;28;20042;-76
2021/12/23 04:27:49;;;;;;;11.73;8.55;;;9.60;99.40;;;;;;5001842;28;20077;-76
2021/12/23 04:30:15;;;;;;;12.90;7.47;;;9.60;99.40;;;;;;5006531;28;20015;-76
2021/12/23 04:32:41;;;;;;;10.73;7.90;;;9.60;99.00;;;;;;5010624;28;20030;-76
2021/12/23 04:35:08;;;;;;;12.68;7.95;;;9.70;99.00;;;;;;5013282;28;20085;-76
2021/12/23 04:37:34;;;;;;;12.50;7.63;;;9.70;98.70;;;;;;5015355;28;20064;-76
2021/12/23 04:40:01;;;;;;;13.70;8.38;;;9.70;98.60;;;;;;5011081;28;20040;-76
2021/12/23 04:42:27;;;;;;;11.32;7.88;;;9.70;98.80;;;;;;5012367;28;20022;-76
2021/12/23 04:44:52;;;;;;;10.65;7.40;;;9.70;98.50;;;;;;5012586;28;20033;-76
2021/12/23 04:47:18;;;;;;;13.63;8.10;;;9.70;98.60;;;;;;5013182;28;20506;-76
2021/12/23 04:49:44;;;;;;;12.98;8.52;;;9.70;98.50;;;;;;5013286;28;20394;-76
2021/12/23 04:52:10;;;;;;;14.10;8.35;;;9.70;98.60;;;;;;5011460;28;20029;-76
2021/12/23 04:54:36;;;;;;;10.45;8.13;;;9.70;98.70;;;;;;5009729;28;20362;-76
2021/12/23 04:57:01;;;;;;;12.00;7.88;;;9.70;98.40;;;;;;5012825;28;20022;-77
2021/12/23 04:59:27;;;;;;;12.55;8.23;;;9.70;98.50;;;;;;5013200;28;20041;-76
2021/12/23 05:01:53;;;;;;;13.38;8.27;;;9.70;98.40;;;;;;5013254;28;20022;-76
2021/12/23 05:04:18;;;;;;;11.10;8.00;;;9.70;98.50;;;;;;5016042;28;20410;-76
2021/12/23 05:06:44;;;;;;;12.30;8.50;;;9.70;98.50;;;;;;5009639;28;20510;-76
2021/12/23 05:09:10;;;;;;;12.85;8.02;;;9.70;98.30;;;;;;5013065;28;20065;-76
2021/12/23 05:11:35;;;;;;;14.38;8.18;;;9.70;98.60;;;;;;5010502;28;20482;-76
2021/12/23 05:14:01;;;;;;;10.85;7.57;;;9.70;98.30;;;;;;5013110;28;20033;-76
2021/12/23 05:16:27;;;;;;;11.77;7.85;;;9.70;98.20;;;;;;5007873;28;20474;-76
2021/12/23 05:18:52;;;;;;;13.27;8.57;;;9.70;98.30;;;;;;5001566;28;20045;-77
2021/12/23 05:21:18;;;;;;;14.15;8.85;;;9.70;98.30;;;;;;5007290;28;20023;-76
2021/12/23 05:23:44;;;;;;;12.65;7.93;;;9.70;98.20;;;;;;5009504;28;20459;-76
2021/12/23 05:26:09;;;;;;;13.05;8.32;;;9.70;98.30;;;;;;5006262;28;20034;-76
2021/12/23 05:28:36;;;;;;;12.25;8.60;;;9.70;98.40;;;;;;5007509;28;20394;-76
2021/12/23 05:31:04;;;;;;;13.02;8.48;;;9.70;98.50;;;;;;5002542;28;20061;-76
2021/12/23 05:33:29;;;;;;;14.25;8.95;;;9.60;98.50;;;;;;5005034;28;20431;-76
2021/12/23 05:35:55;;;;;;;14.63;9.07;;;9.70;98.60;;;;;;5009800;28;20029;-76
2021/12/23 05:38:22;;;;;;;12.80;9.02;;;9.70;98.50;;;;;;5007578;28;20030;-76
2021/12/23 05:40:48;;;;;;;13.63;8.95;;;9.60;98.80;;;;;;5005768;28;20032;-76
2021/12/23 05:43:14;;;;;;;15.65;9.20;;;9.70;98.70;;;;;;5005253;28;20461;-76
2021/12/23 05:45:40;;;;;;;14.35;9.18;;;9.70;98.70;;;;;;5002046;28;20031;-76
2021/12/23 05:48:06;;;;;;;13.73;9.63;;;9.70;98.80;;;;;;5013313;28;20037;-76
2021/12/23 05:50:32;;;;;;;12.93;8.88;;;9.60;98.80;;;;;;5013212;28;20394;-76
2021/12/23 05:52:58;;;;;;;14.55;8.35;;;9.60;98.80;;;;;;5013176;28;20109;-76
2021/12/23 05:55:24;;;;;;;17.33;10.82;;;9.70;98.80;;;;;;5015323;28;20033;-76
2021/12/23 05:57:50;;;;;;;17.77;11.60;;;9.70;99.30;;;;;;5009331;28;20109;-76
2021/12/23 06:00:22;;;;;;;17.50;11.57;;;9.60;99.90;;;;;;5013162;28;20087;-76
2021/12/23 06:02:49;;;;;;;13.85;11.10;;;9.40;99.90;;;;;;5010065;28;20057;-77
2021/12/23 06:05:15;;;;;;;19.20;12.93;;;9.40;99.90;;;;;;5013460;28;20042;-76
2021/12/23 06:07:41;;;;;;;14.77;11.65;;;9.20;99.90;;;;;;5015043;28;20017;-76
2021/12/23 06:10:08;;;;;;;18.52;12.68;;;9.20;99.90;;;;;;5011566;28;20030;-76
2021/12/23 06:12:34;;;;;;;17.25;11.30;;;9.20;99.90;;;;;;5011543;28;20411;-76
2021/12/23 06:14:59;;;;;;;17.98;11.00;;;9.10;99.90;;;;;;5013614;28;20033;-76
2021/12/23 06:17:25;;;;;;;17.40;11.85;;;9.10;99.90;;;;;;5013403;28;20010;-76
2021/12/23 06:19:51;;;;;;;14.98;11.20;;;9.10;99.90;;;;;;5014006;28;20042;-76
2021/12/23 06:22:18;;;;;;;16.65;11.38;;;9.00;99.90;;;;;;5013966;28;20029;-76
2021/12/23 06:24:47;;;;;;;18.55;10.70;;;9.00;99.90;;;;;;5010239;28;20407;-76
2021/12/23 06:27:14;;;;;;;17.10;11.68;;;8.90;99.90;;;;;;5011099;28;20038;-76
2021/12/23 06:29:39;;;;;;;19.63;11.57;;;8.90;99.90;;;;;;5010881;28;20469;-76
2021/12/23 06:32:05;;;;;;;18.80;11.85;;;8.90;99.90;;;;;;5006862;28;20116;-76
2021/12/23 06:34:31;;;;;;;15.57;11.10;;;8.90;99.90;;;;;;5006797;28;20053;-76
2021/12/23 06:36:57;;;;;;;16.80;11.95;;;8.80;99.90;;;;;;5003736;28;20647;-76
2021/12/23 06:39:23;;;;;;;18.15;12.02;;;8.70;99.90;;;;;;5012538;28;20496;-76
2021/12/23 06:41:49;;;;;;;17.10;12.85;;;8.70;99.90;;;;;;5011127;28;20033;-76
2021/12/23 06:44:15;;;;;;;17.75;13.13;;;8.70;99.90;;;;;;5006995;28;20042;-76
2021/12/23 06:46:41;;;;;;;17.58;11.57;;;8.60;99.90;;;;;;5007067;28;20548;-76
2021/12/23 06:49:06;;;;;;;20.90;12.45;;;8.70;99.90;;;;;;5004025;28;20034;-76
2021/12/23 06:51:32;;;;;;;15.85;11.77;;;8.80;99.90;;;;;;5006730;28;20153;-76
2021/12/23 06:54:00;;;;;;;15.13;11.50;;;8.80;99.90;;;;;;5013412;28;20038;-76
2021/12/23 06:56:26;;;;;;;18.30;12.00;;;8.80;99.90;;;;;;5008279;28;20022;-76
2021/12/23 06:58:51;;;;;;;18.35;12.02;;;8.80;99.90;;;;;;5006596;28;20041;-76
2021/12/23 07:01:20;;;;;;;14.43;10.45;;;8.80;99.90;;;;;;5005238;28;20490;-76
2021/12/23 07:06:20;;;;;;;18.67;12.07;;;8.80;99.90;;;;;;5014024;28;20026;-76
2021/12/23 07:08:46;;;;;;;17.80;11.05;;;8.80;99.90;;;;;;5013282;28;20493;-76
2021/12/23 07:11:12;;;;;;;13.82;10.18;;;8.80;99.90;;;;;;5009269;28;20038;-76
2021/12/23 07:13:38;;;;;;;15.48;10.20;;;8.90;99.90;;;;;;5010392;28;20038;-76
2021/12/23 07:16:04;;;;;;;13.75;10.18;;;8.80;99.90;;;;;;5007272;28;20041;-76
2021/12/23 07:18:29;;;;;;;14.25;9.20;;;8.90;99.90;;;;;;5014653;28;20402;-77
2021/12/23 07:20:55;;;;;;;15.10;9.23;;;9.00;99.90;;;;;;5017510;28;20491;-77
2021/12/23 07:23:21;;;;;;;15.63;8.82;;;9.10;99.90;;;;;;5017412;28;20164;-77
2021/12/23 07:25:47;;;;;;;10.63;8.27;;;9.20;99.90;;;;;;5018250;28;20029;-78
2021/12/23 07:28:12;;;;;;;12.82;8.65;;;9.30;99.90;;;;;;5016164;28;20056;-77
2021/12/23 07:30:38;;;;;;;12.10;8.00;;;9.30;99.90;;;;;;5015276;28;20109;-77
2021/12/23 07:33:04;;;;;;;10.70;7.75;;;9.40;99.90;;;;;;5016050;28;20029;-78
2021/12/23 07:35:30;;;;;;;12.88;7.40;;;9.50;99.90;;;;;;5011155;28;20084;-76
2021/12/23 07:37:59;;;;;;;10.95;8.05;;;9.50;99.90;;;;;;5009602;28;20116;-76
2021/12/23 07:40:25;;;;;;;13.20;7.38;;;9.50;99.90;;;;;;5009999;28;20022;-77
2021/12/23 07:42:56;;;;;;;12.07;7.97;;;9.60;99.90;;;;;;5013690;28;20025;-77
2021/12/23 07:45:27;;;;;;;9.90;7.60;;;9.60;99.90;;;;;;5016753;28;20393;-77
2021/12/23 07:47:53;;;;;;;11.20;8.35;;;9.60;99.90;;;;;;5009137;28;20144;-77
2021/12/23 07:50:19;;;;;;;23.90;13.73;;;9.70;99.90;;;;;;5013203;28;20022;-78
2021/12/23 07:52:45;;;;;;;21.42;14.45;;;9.60;99.90;;;;;;5011583;28;20038;-77
2021/12/23 07:55:11;;;;;;;24.55;14.13;;;9.50;99.90;;;;;;5013231;28;20065;-78
2021/12/23 07:57:37;;;;;;;22.92;14.15;;;9.40;99.90;;;;;;5012092;28;20026;-77
2021/12/23 08:00:05;;;;;;;24.45;14.93;;;9.40;99.90;;;;;;5008903;28;20041;-78
2021/12/23 08:02:31;;;;;;;22.02;13.98;;;9.20;99.90;;;;;;5012617;28;20030;-77
2021/12/23 08:04:56;;;;;;;22.55;13.45;;;9.30;99.90;;;;;;5013647;28;20731;-78
2021/12/23 08:07:22;;;;;;;22.92;13.55;;;9.20;99.90;;;;;;5016366;28;20088;-79
2021/12/23 08:09:48;;;;;;;20.73;13.93;;;9.20;99.90;;;;;;5005198;28;20025;-77
2021/12/23 08:12:13;;;;;;;16.27;11.57;;;9.20;99.90;;;;;;5005262;28;20061;-77
2021/12/23 08:14:39;;;;;;;20.08;12.73;;;9.20;99.90;;;;;;5010462;28;20034;-77
2021/12/23 08:17:05;;;;;;;18.00;12.43;;;9.20;99.90;;;;;;5013844;28;20037;-75
2021/12/23 08:19:31;;;;;;;17.77;12.73;;;9.30;99.90;;;;;;5008146;28;20060;-74
2021/12/23 08:21:56;;;;;;;16.83;12.88;;;9.30;99.90;;;;;;5012630;28;20045;-74
2021/12/23 08:24:22;;;;;;;19.35;12.60;;;9.30;99.90;;;;;;5014043;28;20049;-74
2021/12/23 08:26:52;;;;;;;18.73;11.55;;;9.30;99.90;;;;;;5016118;28;20029;-74
2021/12/23 08:29:19;;;;;;;16.20;12.48;;;9.30;99.90;;;;;;5015554;28;20026;-74
2021/12/23 08:31:55;;;;;;;15.68;11.48;;;9.30;99.90;;;;;;5015624;28;20402;-74
2021/12/23 08:34:22;;;;;;;18.83;12.15;;;9.30;99.90;;;;;;5014391;28;20502;-74
2021/12/23 08:36:48;;;;;;;17.83;11.45;;;9.20;99.90;;;;;;5005081;28;20032;-74
2021/12/23 08:39:15;;;;;;;17.60;11.60;;;9.20;99.90;;;;;;5008612;28;20069;-76
2021/12/23 08:41:41;;;;;;;15.80;11.52;;;9.30;99.90;;;;;;5005641;28;20033;-74
2021/12/23 08:44:07;;;;;;;18.58;12.43;;;9.30;99.90;;;;;;5008821;28;20372;-75
2021/12/23 08:46:33;;;;;;;16.35;12.57;;;9.20;99.90;;;;;;5013594;28;20052;-74
2021/12/23 08:48:58;;;;;;;17.70;11.98;;;9.20;99.90;;;;;;5006230;28;20033;-75
2021/12/23 08:51:25;;;;;;;18.00;12.10;;;9.20;99.90;;;;;;5007939;28;21058;-73
2021/12/23 08:53:50;;;;;;;17.85;11.98;;;9.20;99.90;;;;;;5003193;28;20116;-75
2021/12/23 08:56:16;;;;;;;16.48;11.07;;;9.20;99.90;;;;;;5004194;28;20109;-74
2021/12/23 08:58:42;;;;;;;16.88;11.75;;;9.20;99.90;;;;;;5005025;28;20494;-75
2021/12/23 09:01:08;;;;;;;16.75;11.65;;;9.20;99.90;;;;;;5005602;28;20061;-75
2021/12/23 09:03:35;;;;;;;18.42;11.73;;;9.20;99.90;;;;;;5005000;28;20391;-75
2021/12/23 09:06:02;;;;;;;15.95;10.98;;;9.20;99.90;;;;;;5002973;28;20422;-73
2021/12/23 09:08:28;;;;;;;19.23;13.48;;;9.30;99.90;;;;;;5001991;28;20048;-75
2021/12/23 09:10:56;;;;;;;17.85;11.73;;;9.30;99.90;;;;;;5002434;28;20030;-75
2021/12/23 09:13:23;;;;;;;20.38;12.05;;;9.30;99.90;;;;;;5005886;28;20033;-75
2021/12/23 09:15:51;;;;;;;18.83;12.32;;;9.40;99.90;;;;;;5004381;28;20034;-75
2021/12/23 09:18:21;;;;;;;27.45;14.45;;;9.40;99.90;;;;;;5002706;28;20042;-76
2021/12/23 09:20:48;;;;;;;15.82;12.40;;;9.40;99.90;;;;;;5004348;28;20053;-76
2021/12/23 09:23:14;;;;;;;20.88;13.38;;;9.40;99.90;;;;;;5003743;28;20034;-76
2021/12/23 09:25:41;;;;;;;20.80;13.52;;;9.40;99.90;;;;;;5005792;28;20049;-78
2021/12/23 09:28:30;;;;;;;17.70;12.88;;;9.40;99.90;;;;;;5005227;28;20040;-76
2021/12/23 09:33:42;;;;;;;18.45;11.95;;;9.40;99.90;;;;;;5005432;28;20459;-77
2021/12/23 09:36:09;;;;;;;19.55;12.63;;;9.50;99.90;;;;;;5005493;28;20107;-77
2021/12/23 09:38:35;;;;;;;21.50;12.95;;;9.50;99.90;;;;;;5002489;28;20030;-77
2021/12/23 09:41:21;;;;;;;20.50;13.25;;;9.50;99.90;;;;;;5004422;28;20033;-76
2021/12/23 09:43:48;;;;;;;18.33;12.32;;;9.60;99.90;;;;;;5003975;28;20033;-78
2021/12/23 09:46:16;;;;;;;17.55;12.63;;;9.60;99.90;;;;;;5004318;28;20196;-78
2021/12/23 09:48:44;;;;;;;19.20;12.60;;;9.60;99.90;;;;;;5006669;28;20029;-81
2021/12/23 09:51:13;;;;;;;17.75;12.68;;;9.70;99.90;;;;;;5004434;28;20087;-78
2021/12/23 09:53:42;;;;;;;20.70;12.55;;;9.70;99.90;;;;;;4998598;28;20025;-84
2021/12/23 09:56:08;;;;;;;18.30;12.48;;;9.80;99.70;;;;;;5004260;28;20109;-83
2021/12/23 09:58:35;;;;;;;21.63;14.23;;;9.80;99.90;;;;;;5005523;28;20053;-80
2021/12/23 10:01:02;;;;;;;21.85;14.63;;;9.80;99.60;;;;;;5004430;28;20113;-81
2021/12/23 10:03:29;;;;;;;23.67;14.45;;;9.80;99.90;;;;;;5004820;28;20030;-80
2021/12/23 10:05:56;;;;;;;19.17;14.73;;;9.80;99.50;;;;;;5004878;28;20030;-81
2021/12/23 10:08:22;;;;;;;21.88;14.88;;;9.90;99.30;;;;;;5002429;28;20026;-80
2021/12/23 10:10:56;;;;;;;20.77;13.77;;;9.90;99.10;;;;;;5005797;28;20034;-81
2021/12/23 10:38:12;;;;;;;20.42;13.27;;;10.40;99.20;;;;;;5012584;28;20569;-74
2021/12/23 10:40:41;;;;;;;22.98;14.43;;;10.40;99.10;;;;;;5008421;28;20326;-75
2021/12/23 10:43:12;;;;;;;21.40;14.63;;;10.40;99.00;;;;;;5007192;28;20030;-76
2021/12/23 10:45:55;;;;;;;23.52;14.70;;;10.40;99.30;;;;;;5006513;28;20386;-76
2021/12/23 10:48:26;;;;;;;21.08;13.00;;;10.50;99.30;;;;;;5006551;28;20049;-75
2021/12/23 10:51:00;;;;;;;19.05;13.10;;;10.50;99.00;;;;;;5004467;28;20379;-75
2021/12/23 10:59:30;;;;;;;17.58;13.10;;;10.50;98.80;;;;;;5007949;28;20045;-76
2021/12/23 11:02:17;;;;;;;19.27;13.90;;;10.50;98.70;;;;;;5000768;28;20034;-77
2021/12/23 11:05:23;;;;;;;19.25;13.68;;;10.60;99.10;;;;;;5006800;28;20040;-77
2021/12/23 11:08:05;;;;;;;20.02;13.20;;;10.60;98.70;;;;;;5008363;28;20114;-77
2021/12/23 11:41:18;;;;;;;24.27;16.13;;;11.40;98.00;;;;;;5003230;28;20026;-75
2021/12/23 11:46:12;;;;;;;25.67;16.85;;;11.40;97.80;;;;;;5010248;28;20511;-77
2021/12/23 11:48:43;;;;;;;26.42;17.98;;;11.40;98.10;;;;;;5012195;28;20030;-76
2021/12/23 11:51:15;;;;;;;24.52;16.40;;;11.50;98.30;;;;;;5010408;28;20029;-77
2021/12/23 11:53:42;;;;;;;21.75;14.93;;;11.50;98.00;;;;;;5009869;28;20480;-74
2021/12/23 11:56:10;;;;;;;21.75;14.48;;;11.60;97.90;;;;;;5009472;28;20026;-74
2021/12/23 11:58:42;;;;;;;21.55;13.95;;;11.60;97.40;;;;;;5008294;28;20049;-73
2021/12/23 12:01:38;;;;;;;16.83;10.82;;;11.60;97.50;;;;;;5011478;28;20041;-72
2021/12/23 12:04:08;;;;;;;15.23;11.32;;;11.70;97.30;;;;;;4996198;28;20053;-74
2021/12/23 12:06:39;;;;;;;18.75;11.38;;;11.60;96.70;;;;;;5010370;28;20041;-74
2021/12/23 12:09:27;;;;;;;23.25;15.02;;;11.60;96.90;;;;;;5009888;28;20025;-74
2021/12/23 12:11:59;;;;;;;21.45;14.82;;;11.60;97.40;;;;;;5008210;28;20026;-73
2021/12/23 12:14:38;;;;;;;25.65;15.63;;;11.60;97.10;;;;;;5008465;28;20034;-74
2021/12/23 12:17:26;;;;;;;22.80;15.93;;;11.60;97.50;;;;;;5001297;28;20034;-73
2021/12/23 12:20:00;;;;;;;22.23;14.90;;;11.60;97.20;;;;;;5008537;28;20109;-73
2021/12/23 12:22:44;;;;;;;19.63;13.98;;;11.60;97.10;;;;;;5004563;28;20631;-74
2021/12/23 12:25:11;;;;;;;;;;;11.60;97.00;;;;;;5009414;28;20076;-74
2021/12/23 12:27:38;;;;;;;19.15;13.20;;;11.60;97.00;;;;;;5010082;28;20490;-74
2021/12/23 12:30:11;;;;;;;22.38;14.30;;;11.60;97.10;;;;;;5008609;28;20390;-74
2021/12/23 12:32:37;;;;;;;23.50;14.43;;;11.50;97.20;;;;;;5008164;28;20022;-74
2021/12/23 12:35:20;;;;;;;21.83;13.73;;;11.50;97.30;;;;;;5008659;28;20495;-74
2021/12/23 12:37:50;;;;;;;22.45;15.00;;;11.50;96.90;;;;;;5008058;28;20025;-74
2021/12/23 12:40:17;;;;;;;20.02;14.15;;;11.50;97.00;;;;;;5009331;28;20038;-73
2021/12/23 12:42:47;;;;;;;19.73;14.23;;;11.50;97.40;;;;;;5010590;28;20529;-74
2021/12/23 12:45:25;;;;;;;22.67;14.65;;;11.50;97.40;;;;;;5008218;28;20034;-75
2021/12/23 12:48:00;;;;;;;19.92;14.90;;;11.50;97.30;;;;;;5009171;28;20463;-75
2021/12/23 12:50:29;;;;;;;23.55;14.88;;;11.50;97.40;;;;;;5008995;28;20054;-75
2021/12/23 12:53:04;;;;;;;23.30;14.52;;;11.60;97.10;;;;;;5008687;28;20030;-75
2021/12/23 12:55:30;;;;;;;21.10;15.10;;;11.60;97.40;;;;;;5004664;28;20039;-77
2021/12/23 12:58:03;;;;;;;23.90;15.13;;;11.60;97.10;;;;;;5011913;28;20018;-76
2021/12/23 13:00:39;;;;;;;27.52;15.88;;;11.60;96.90;;;;;;5010485;28;20030;-75
2021/12/23 13:03:12;;;;;;;22.88;14.55;;;11.60;97.40;;;;;;5008962;28;20041;-72
2021/12/23 13:05:38;;;;;;;22.43;13.30;;;11.60;97.40;;;;;;5008950;28;20041;-75
2021/12/23 13:08:28;;;;;;;18.77;12.00;;;11.60;97.10;;;;;;5008520;28;20490;-73
2021/12/23 13:11:21;;;;;;;17.08;11.90;;;11.60;97.10;;;;;;5008407;28;20335;-74
2021/12/23 13:13:59;;;;;;;17.92;10.60;;;11.60;96.80;;;;;;5005625;28;20446;-75
2021/12/23 13:16:25;;;;;;;16.63;10.77;;;11.60;96.80;;;;;;5010437;28;20029;-75
2021/12/23 13:19:11;;;;;;;19.20;12.20;;;11.60;97.10;;;;;;5010458;28;20494;-75
2021/12/23 13:21:55;;;;;;;20.27;11.48;;;11.60;97.10;;;;;;5010407;28;20057;-75
2021/12/23 13:24:23;;;;;;;16.80;10.52;;;11.60;97.00;;;;;;5005198;28;20045;-75
2021/12/23 13:26:51;;;;;;;19.00;10.82;;;11.50;97.20;;;;;;5010251;28;20056;-75
2021/12/23 13:29:17;;;;;;;17.90;10.23;;;11.50;96.70;;;;;;5007101;28;20077;-75
2021/12/23 13:31:45;;;;;;;16.85;11.05;;;11.50;96.80;;;;;;5006741;28;20029;-75
2021/12/23 13:34:18;;;;;;;15.32;11.32;;;11.50;97.20;;;;;;5009944;28;20026;-75
2021/12/23 13:36:52;;;;;;;17.30;10.13;;;11.50;96.40;;;;;;5010585;28;20014;-73
2021/12/23 13:39:21;;;;;;;19.40;11.05;;;11.50;96.80;;;;;;5012975;28;20046;-73
2021/12/23 13:41:49;;;;;;;18.23;10.95;;;11.50;96.40;;;;;;5013117;28;20022;-75
2021/12/23 13:44:14;;;;;;;17.35;11.68;;;11.50;96.80;;;;;;5013351;28;20026;-75
2021/12/23 13:46:56;;;;;;;16.52;11.05;;;11.50;96.70;;;;;;5014345;28;20043;-74
2021/12/23 13:49:45;;;;;;;18.98;11.20;;;11.50;97.10;;;;;;5014280;28;20035;-74
2021/12/23 13:52:22;;;;;;;17.05;10.77;;;11.50;96.90;;;;;;5012453;28;20045;-74
2021/12/23 13:54:48;;;;;;;18.45;11.73;;;11.50;97.30;;;;;;5009972;28;20021;-74
2021/12/23 13:57:19;;;;;;;19.08;12.05;;;11.50;97.10;;;;;;5013592;28;20108;-74
2021/12/23 13:59:46;;;;;;;16.75;10.90;;;11.40;97.20;;;;;;5007499;28;20037;-74
2021/12/23 14:02:13;;;;;;;17.00;11.23;;;11.40;96.90;;;;;;5009713;28;20408;-74
2021/12/23 14:05:03;;;;;;;20.48;13.43;;;11.40;96.90;;;;;;5011876;28;20136;-74